createdAt,value
2019-05-13T00:03:47.673Z,9.33
2019-05-13T00:08:54.224Z,9.27
2019-05-13T00:13:57.876Z,9.21
2019-05-13T00:19:04.062Z,9.22
2019-05-13T00:24:08.031Z,9.20
2019-05-13T00:29:14.161Z,9.06
2019-05-13T00:34:18.238Z,8.95
2019-05-13T00:39:24.513Z,8.89
2019-05-13T00:44:28.513Z,8.77
2019-05-13T00:49:34.517Z,8.58
2019-05-13T00:54:38.695Z,8.54
2019-05-13T00:59:44.265Z,8.46
2019-05-13T01:04:48.662Z,8.47
2019-05-13T01:09:53.483Z,8.46
2019-05-13T01:14:57.816Z,8.21
2019-05-13T01:20:04.127Z,8.27
2019-05-13T01:25:08.665Z,8.26
2019-05-13T01:30:13.520Z,8.28
2019-05-13T01:35:17.924Z,8.12
2019-05-13T01:40:23.948Z,8.13
2019-05-13T01:45:28.273Z,7.64
2019-05-13T01:50:33.784Z,7.58
2019-05-13T01:55:38.310Z,7.79
2019-05-13T02:00:44.237Z,7.70
2019-05-13T02:05:48.828Z,7.40
2019-05-13T02:10:57.429Z,7.44
2019-05-13T02:16:03.895Z,7.58
2019-05-13T02:21:07.621Z,7.33
2019-05-13T02:26:13.590Z,7.31
2019-05-13T02:31:26.802Z,7.27
2019-05-13T02:36:24.170Z,7.40
2019-05-13T02:41:28.403Z,7.14
2019-05-13T02:46:33.857Z,7.17
2019-05-13T02:51:38.444Z,6.96
2019-05-13T02:56:42.960Z,6.77
2019-05-13T03:01:47.161Z,6.85
2019-05-13T03:06:52.148Z,7.04
2019-05-13T03:11:56.460Z,6.89
2019-05-13T03:17:15.715Z,6.79
2019-05-13T03:22:22.449Z,6.89
2019-05-13T03:27:25.884Z,6.68
2019-05-13T03:32:41.827Z,6.56
2019-05-13T03:37:36.778Z,6.65
2019-05-13T03:43:02.965Z,6.66
2019-05-13T03:48:07.517Z,6.72
2019-05-13T03:53:13.025Z,6.65
2019-05-13T03:58:17.512Z,6.75
2019-05-13T04:03:22.711Z,6.88
2019-05-13T04:08:27.352Z,6.79
2019-05-13T04:13:33.438Z,6.75
2019-05-13T04:18:37.634Z,6.79
2019-05-13T04:23:42.814Z,6.93
2019-05-13T04:28:47.198Z,6.96
2019-05-13T04:33:53.135Z,6.93
2019-05-13T04:38:58.182Z,7.05
2019-05-13T04:44:02.937Z,7.14
2019-05-13T04:49:07.329Z,7.20
2019-05-13T04:54:13.072Z,7.38
2019-05-13T04:59:17.514Z,7.64
2019-05-13T05:04:31.046Z,7.57
2019-05-13T05:10:31.712Z,7.72
2019-05-13T05:16:06.094Z,7.60
2019-05-13T05:21:15.821Z,7.74
2019-05-13T05:27:01.473Z,8.02
2019-05-13T05:32:13.633Z,8.05
2019-05-13T05:37:47.054Z,8.11
2019-05-13T05:42:54.773Z,8.23
2019-05-13T05:48:01.549Z,8.48
2019-05-13T05:53:06.946Z,8.59
2019-05-13T05:58:12.586Z,8.85
2019-05-13T06:03:17.173Z,8.99
2019-05-13T06:08:22.218Z,8.99
2019-05-13T06:13:26.504Z,9.30
2019-05-13T06:18:32.603Z,9.20
2019-05-13T06:23:36.899Z,9.62
2019-05-13T06:28:41.543Z,9.45
2019-05-13T06:33:45.857Z,9.77
2019-05-13T06:38:51.331Z,9.98
2019-05-13T06:43:55.741Z,10.13
2019-05-13T06:48:59.978Z,10.04
2019-05-13T06:54:04.418Z,10.36
2019-05-13T06:59:08.664Z,10.59
2019-05-13T07:04:12.914Z,10.68
2019-05-13T07:09:17.152Z,10.77
2019-05-13T07:14:21.873Z,11.15
2019-05-13T07:19:26.226Z,11.43
2019-05-13T07:24:32.298Z,11.24
2019-05-13T07:29:36.430Z,11.62
2019-05-13T07:34:43.883Z,11.67
2019-05-13T07:39:46.972Z,11.61
2019-05-13T07:44:52.233Z,11.80
2019-05-13T07:49:56.632Z,11.86
2019-05-13T07:55:01.609Z,12.36
2019-05-13T08:00:07.007Z,12.37
2019-05-13T08:05:12.092Z,12.42
2019-05-13T08:10:16.640Z,12.70
2019-05-13T08:15:22.333Z,12.92
2019-05-13T08:20:26.719Z,12.91
2019-05-13T08:25:31.581Z,12.88
2019-05-13T08:30:35.978Z,13.17
2019-05-13T08:35:41.726Z,13.16
2019-05-13T08:40:46.370Z,13.58
2019-05-13T08:45:51.669Z,13.21
2019-05-13T08:50:56.575Z,12.95
2019-05-13T08:56:01.688Z,12.66
2019-05-13T09:01:06.365Z,13.37
2019-05-13T09:06:11.680Z,13.27
2019-05-13T09:11:16.056Z,12.78
2019-05-13T09:16:21.425Z,12.60
2019-05-13T09:21:25.979Z,12.85
2019-05-13T09:26:31.642Z,12.73
2019-05-13T09:31:36.086Z,13.17
2019-05-13T09:36:41.768Z,12.62
2019-05-13T09:41:46.352Z,13.24
2019-05-13T09:46:51.637Z,13.66
2019-05-13T09:51:56.174Z,13.41
2019-05-13T09:57:01.767Z,13.37
2019-05-13T10:02:06.353Z,13.55
2019-05-13T10:07:12.298Z,13.59
2019-05-13T10:12:16.778Z,14.01
2019-05-13T10:17:22.082Z,14.72
2019-05-13T10:22:26.877Z,14.59
2019-05-13T10:27:32.770Z,13.49
2019-05-13T10:32:37.139Z,13.70
2019-05-13T10:37:42.177Z,14.19
2019-05-13T10:42:46.531Z,15.10
2019-05-13T10:47:51.954Z,14.26
2019-05-13T10:52:56.395Z,14.38
2019-05-13T10:58:02.435Z,15.28
2019-05-13T11:03:06.872Z,16.06
2019-05-13T11:08:11.579Z,16.67
2019-05-13T11:13:15.856Z,16.60
2019-05-13T11:18:24.122Z,16.46
2019-05-13T11:23:26.199Z,15.90
2019-05-13T11:28:31.718Z,16.85
2019-05-13T11:33:36.769Z,18.15
2019-05-13T11:38:43.259Z,17.25
2019-05-13T11:44:08.193Z,16.20
2019-05-13T11:48:53.310Z,15.45
2019-05-13T11:53:57.568Z,17.81
2019-05-13T11:59:04.366Z,18.28
2019-05-13T12:04:07.992Z,20.39
2019-05-13T12:09:13.323Z,21.26
2019-05-13T12:14:39.288Z,21.47
2019-05-13T12:19:23.730Z,21.19
2019-05-13T12:24:28.024Z,22.12
2019-05-13T12:29:32.525Z,21.79
2019-05-13T12:34:40.965Z,18.42
2019-05-13T12:39:43.862Z,18.42
2019-05-13T12:45:03.897Z,17.75
2019-05-13T12:49:54.558Z,18.00
2019-05-13T12:54:58.851Z,19.00
2019-05-13T13:00:03.231Z,21.30
2019-05-13T13:05:13.333Z,21.03
2019-05-13T13:10:14.885Z,19.34
2019-05-13T13:15:37.133Z,19.00
2019-05-13T13:20:25.489Z,18.41
2019-05-13T13:25:33.597Z,18.93
2019-05-13T13:30:35.899Z,19.96
2019-05-13T13:35:45.156Z,19.63
2019-05-13T13:40:46.317Z,18.87
2019-05-13T13:46:07.203Z,17.57
2019-05-13T13:50:56.609Z,16.96
2019-05-13T13:56:02.449Z,16.46
2019-05-13T14:01:12.150Z,16.18
2019-05-13T14:06:12.913Z,16.19
2019-05-13T14:11:17.297Z,15.96
2019-05-13T14:16:29.539Z,17.32
2019-05-13T14:21:27.622Z,17.91
2019-05-13T14:26:33.096Z,17.62
2019-05-13T14:31:37.613Z,16.16
2019-05-13T14:36:41.879Z,16.41
2019-05-13T14:41:46.125Z,15.92
2019-05-13T14:46:52.372Z,16.35
2019-05-13T14:51:56.618Z,18.59
2019-05-13T14:57:02.406Z,20.97
2019-05-13T15:02:07.217Z,19.34
2019-05-13T15:07:12.080Z,17.78
2019-05-13T15:12:16.643Z,17.05
2019-05-13T15:17:21.465Z,16.37
2019-05-13T15:22:26.394Z,16.49
2019-05-13T15:27:31.653Z,16.99
2019-05-13T15:32:36.148Z,18.26
2019-05-13T15:37:41.809Z,18.26
2019-05-13T15:42:46.214Z,17.37
2019-05-13T15:47:51.601Z,16.80
2019-05-13T15:52:56.103Z,16.35
2019-05-13T15:58:02.461Z,15.93
2019-05-13T16:03:06.435Z,18.72
2019-05-13T16:08:12.164Z,18.48
2019-05-13T16:13:16.805Z,16.96
2019-05-13T16:18:22.217Z,16.32
2019-05-13T16:23:26.722Z,15.84
2019-05-13T16:28:32.492Z,15.46
2019-05-13T16:33:37.296Z,15.12
2019-05-13T16:38:41.970Z,15.07
2019-05-13T16:43:46.411Z,15.04
2019-05-13T16:48:50.692Z,14.78
2019-05-13T16:53:55.002Z,14.52
2019-05-13T16:59:01.454Z,14.36
2019-05-13T17:04:05.419Z,14.40
2019-05-13T17:09:11.490Z,14.28
2019-05-13T17:14:15.808Z,14.24
2019-05-13T17:19:20.894Z,14.20
2019-05-13T17:24:27.108Z,14.15
2019-05-13T17:29:31.821Z,14.21
2019-05-13T17:34:36.482Z,14.30
2019-05-13T17:39:41.531Z,14.32
2019-05-13T17:44:46.497Z,14.45
2019-05-13T17:49:52.127Z,14.57
2019-05-13T17:54:57.522Z,14.61
2019-05-13T18:00:02.001Z,14.47
2019-05-13T18:05:06.639Z,14.43
2019-05-13T18:10:14.209Z,14.46
2019-05-13T18:15:17.609Z,14.50
2019-05-13T18:20:22.687Z,14.20
2019-05-13T18:25:27.009Z,14.09
2019-05-13T18:30:31.814Z,13.89
2019-05-13T18:35:36.100Z,13.79
2019-05-13T18:40:41.934Z,13.64
2019-05-13T18:45:47.193Z,13.29
2019-05-13T18:50:52.345Z,13.07
2019-05-13T18:55:56.963Z,12.84
2019-05-13T19:01:01.559Z,12.57
2019-05-13T19:06:05.887Z,12.45
2019-05-13T19:11:11.791Z,12.38
2019-05-13T19:16:16.212Z,12.28
2019-05-13T19:21:21.894Z,12.22
2019-05-13T19:26:26.322Z,12.12
2019-05-13T19:31:32.461Z,11.98
2019-05-13T19:36:36.540Z,11.91
2019-05-13T19:41:42.372Z,11.86
2019-05-13T19:46:46.752Z,11.76
2019-05-13T19:51:52.167Z,11.73
2019-05-13T19:56:56.502Z,11.69
2019-05-13T20:02:01.450Z,11.62
2019-05-13T20:07:05.918Z,11.50
2019-05-13T20:12:11.176Z,11.48
2019-05-13T20:17:15.764Z,11.34
2019-05-13T20:22:20.067Z,11.29
2019-05-13T20:27:24.313Z,11.12
2019-05-13T20:32:28.566Z,11.05
2019-05-13T20:37:32.806Z,10.96
2019-05-13T20:42:37.048Z,10.81
2019-05-13T20:47:42.062Z,10.76
2019-05-13T20:52:46.401Z,10.68
2019-05-13T20:57:53.091Z,10.62
2019-05-13T21:02:56.693Z,10.58
2019-05-13T21:08:01.695Z,10.47
2019-05-13T21:13:06.095Z,10.45
2019-05-13T21:18:11.449Z,10.39
2019-05-13T21:23:15.783Z,10.31
2019-05-13T21:28:22.097Z,10.25
2019-05-13T21:33:26.059Z,10.22
2019-05-13T21:38:32.223Z,10.16
2019-05-13T21:43:36.298Z,10.10
2019-05-13T21:48:41.621Z,10.08
2019-05-13T21:53:46.078Z,10.03
2019-05-13T21:58:52.139Z,9.99
2019-05-13T22:03:56.360Z,9.97
2019-05-13T22:09:00.617Z,9.98
2019-05-13T22:14:04.859Z,9.96
2019-05-13T22:19:09.093Z,9.99
2019-05-13T22:24:13.354Z,10.01
2019-05-13T22:29:17.600Z,10.06
2019-05-13T22:34:21.872Z,9.95
2019-05-13T22:39:26.154Z,9.97
2019-05-13T22:44:32.415Z,9.84
2019-05-13T22:49:36.502Z,9.69
2019-05-13T22:54:41.292Z,9.48
2019-05-13T22:59:45.667Z,9.47
2019-05-13T23:04:51.151Z,9.49
2019-05-13T23:09:55.585Z,9.40
2019-05-13T23:15:01.336Z,9.48
2019-05-13T23:20:06.381Z,9.31
2019-05-13T23:25:12.142Z,9.25
2019-05-13T23:30:16.690Z,9.21
2019-05-13T23:35:21.645Z,9.19
2019-05-13T23:40:26.043Z,9.11
2019-05-13T23:45:31.190Z,9.08
2019-05-13T23:50:35.614Z,8.95
2019-05-13T23:55:41.447Z,8.84
